createdAt,value
2022-08-10T00:00:07.096Z,4.07
2022-08-10T00:02:33.882Z,3.70
2022-08-10T00:05:00.612Z,4.10
2022-08-10T00:07:27.247Z,3.85
2022-08-10T00:09:53.830Z,3.97
2022-08-10T00:12:20.507Z,3.90
2022-08-10T00:14:47.247Z,3.80
2022-08-10T00:17:13.893Z,3.88
2022-08-10T00:20:03.062Z,4.20
2022-08-10T00:22:27.117Z,4.22
2022-08-10T00:24:57.344Z,4.65
2022-08-10T00:27:51.948Z,4.00
2022-08-10T00:30:12.220Z,4.70
2022-08-10T00:32:38.890Z,4.00
2022-08-10T00:35:06.733Z,4.93
2022-08-10T00:37:33.340Z,3.83
2022-08-10T00:40:00.029Z,4.05
2022-08-10T00:42:26.776Z,4.18
2022-08-10T00:44:53.658Z,4.35
2022-08-10T00:47:36.009Z,4.88
2022-08-10T00:50:05.703Z,4.43
2022-08-10T00:52:34.783Z,4.53
2022-08-10T00:55:02.973Z,4.38
2022-08-10T00:57:30.242Z,4.63
2022-08-10T00:59:58.874Z,5.05
2022-08-10T01:02:26.959Z,5.40
2022-08-10T01:05:00.299Z,5.93
2022-08-10T01:07:53.323Z,5.70
2022-08-10T01:10:41.257Z,5.95
2022-08-10T01:13:13.740Z,6.40
2022-08-10T01:15:51.273Z,6.68
2022-08-10T01:18:26.372Z,6.32
2022-08-10T01:21:32.367Z,6.00
2022-08-10T01:24:25.106Z,6.15
2022-08-10T01:27:07.039Z,6.03
2022-08-10T01:30:03.823Z,5.75
2022-08-10T01:32:40.677Z,6.40
2022-08-10T01:35:17.194Z,7.18
2022-08-10T01:38:05.112Z,6.57
2022-08-10T01:40:36.936Z,6.43
2022-08-10T01:43:08.922Z,6.75
2022-08-10T01:45:45.790Z,5.95
2022-08-10T01:48:31.358Z,6.22
2022-08-10T01:51:09.579Z,6.80
2022-08-10T01:53:46.997Z,6.75
2022-08-10T01:56:16.402Z,7.15
2022-08-10T01:58:45.104Z,7.55
2022-08-10T02:01:16.913Z,7.90
2022-08-10T02:04:05.400Z,7.78
2022-08-10T02:06:37.019Z,7.32
2022-08-10T02:09:07.161Z,7.35
2022-08-10T02:11:55.627Z,7.80
2022-08-10T02:14:25.689Z,7.43
2022-08-10T02:17:03.599Z,7.13
2022-08-10T02:19:33.261Z,7.53
2022-08-10T02:22:36.193Z,6.63
2022-08-10T02:24:49.604Z,7.10
2022-08-10T02:27:17.980Z,7.05
2022-08-10T02:29:49.204Z,6.88
2022-08-10T02:32:24.527Z,6.72
2022-08-10T02:35:05.893Z,6.50
2022-08-10T02:37:37.306Z,6.03
2022-08-10T02:40:04.476Z,5.97
2022-08-10T02:45:17.700Z,5.60
2022-08-10T02:45:42.673Z,6.05
2022-08-10T02:48:18.393Z,5.65
2022-08-10T02:50:54.495Z,5.53
2022-08-10T02:53:56.718Z,5.28
2022-08-10T02:56:39.815Z,5.30
2022-08-10T02:59:17.542Z,5.72
2022-08-10T03:01:48.445Z,5.40
2022-08-10T03:04:56.097Z,5.63
2022-08-10T03:07:17.731Z,5.68
2022-08-10T03:10:13.309Z,6.25
2022-08-10T03:12:43.179Z,6.05
2022-08-10T03:15:15.673Z,5.30
2022-08-10T03:17:56.869Z,5.78
2022-08-10T03:20:38.968Z,5.20
2022-08-10T03:23:23.736Z,5.25
2022-08-10T03:25:55.479Z,5.30
2022-08-10T03:28:24.493Z,5.10
2022-08-10T03:30:52.050Z,5.45
2022-08-10T03:33:21.993Z,5.45
2022-08-10T03:36:40.313Z,4.20
2022-08-10T03:38:36.051Z,5.32
2022-08-10T03:41:05.141Z,5.30
2022-08-10T03:43:32.906Z,5.30
2022-08-10T03:46:02.903Z,5.78
2022-08-10T03:48:44.659Z,4.95
2022-08-10T03:51:18.767Z,5.20
2022-08-10T03:54:04.246Z,5.30
2022-08-10T03:56:37.460Z,5.45
2022-08-10T03:59:05.922Z,5.85
2022-08-10T04:02:52.870Z,4.95
2022-08-10T04:04:25.077Z,5.43
2022-08-10T04:06:57.935Z,5.53
2022-08-10T04:09:54.284Z,5.03
2022-08-10T04:12:20.983Z,5.57
2022-08-10T04:14:50.521Z,5.35
2022-08-10T04:18:02.724Z,5.43
2022-08-10T04:20:17.057Z,5.13
2022-08-10T04:22:44.872Z,4.97
2022-08-10T04:25:14.660Z,5.18
2022-08-10T04:27:42.116Z,5.30
2022-08-10T04:30:09.794Z,5.43
2022-08-10T04:32:37.822Z,5.50
2022-08-10T04:35:06.632Z,5.78
2022-08-10T04:37:34.678Z,6.45
2022-08-10T04:40:01.472Z,5.60
2022-08-10T04:42:28.084Z,5.43
2022-08-10T04:44:54.671Z,4.57
2022-08-10T04:47:57.904Z,4.97
2022-08-10T04:50:10.885Z,5.07
2022-08-10T04:52:37.627Z,5.07
2022-08-10T04:55:04.803Z,5.25
2022-08-10T04:57:31.405Z,5.22
2022-08-10T04:59:58.043Z,5.00
2022-08-10T05:02:30.668Z,4.28
2022-08-10T05:04:58.894Z,4.53
2022-08-10T05:07:25.560Z,5.00
2022-08-10T05:10:03.210Z,4.75
2022-08-10T05:12:37.647Z,4.97
2022-08-10T05:15:09.896Z,4.50
2022-08-10T05:17:38.411Z,4.35
2022-08-10T05:20:07.824Z,4.28
2022-08-10T05:22:37.042Z,4.55
2022-08-10T05:25:05.450Z,4.97
2022-08-10T05:27:33.702Z,4.38
2022-08-10T05:30:03.125Z,4.85
2022-08-10T05:32:57.717Z,4.68
2022-08-10T05:35:22.972Z,4.28
2022-08-10T05:38:12.630Z,4.20
2022-08-10T05:40:42.550Z,5.20
2022-08-10T05:43:15.146Z,4.70
2022-08-10T05:46:18.716Z,4.78
2022-08-10T05:48:57.500Z,5.28
2022-08-10T05:51:20.696Z,4.80
2022-08-10T05:54:02.249Z,4.60
2022-08-10T05:56:55.378Z,4.43
2022-08-10T06:00:34.974Z,4.43
2022-08-10T06:02:46.436Z,4.65
2022-08-10T06:05:23.580Z,4.57
2022-08-10T06:08:04.496Z,4.63
2022-08-10T06:10:35.660Z,4.45
2022-08-10T06:13:30.360Z,4.88
2022-08-10T06:16:04.148Z,4.38
2022-08-10T06:18:31.405Z,4.40
2022-08-10T06:20:59.119Z,4.38
2022-08-10T06:23:31.130Z,4.35
2022-08-10T06:26:12.075Z,3.97
2022-08-10T06:28:52.990Z,4.30
2022-08-10T06:31:46.644Z,3.92
2022-08-10T06:34:23.108Z,3.92
2022-08-10T06:36:50.453Z,3.88
2022-08-10T06:39:32.953Z,3.90
2022-08-10T06:42:17.954Z,3.90
2022-08-10T06:45:15.217Z,3.67
2022-08-10T06:47:49.632Z,3.92
2022-08-10T06:50:34.781Z,3.75
2022-08-10T06:53:18.210Z,3.20
2022-08-10T06:56:04.309Z,3.25
2022-08-10T06:58:40.937Z,3.45
2022-08-10T07:01:14.264Z,3.25
2022-08-10T07:03:53.712Z,3.10
2022-08-10T07:06:21.486Z,3.30
2022-08-10T07:08:50.913Z,2.67
2022-08-10T07:11:21.868Z,2.50
2022-08-10T07:14:16.046Z,2.67
2022-08-10T07:16:39.677Z,2.92
2022-08-10T07:19:09.617Z,2.72
2022-08-10T07:21:42.193Z,2.70
2022-08-10T07:24:15.314Z,2.50
2022-08-10T07:26:49.376Z,2.65
2022-08-10T07:29:54.013Z,2.63
2022-08-10T07:32:07.659Z,2.50
2022-08-10T07:34:37.715Z,2.63
2022-08-10T07:37:08.047Z,2.58
2022-08-10T07:40:02.243Z,2.30
2022-08-10T07:42:34.327Z,2.30
2022-08-10T07:45:03.808Z,2.85
2022-08-10T07:47:46.145Z,2.50
2022-08-10T07:50:22.575Z,2.10
2022-08-10T07:52:51.552Z,2.20
2022-08-10T07:56:03.629Z,2.20
2022-08-10T07:58:08.879Z,2.30
2022-08-10T08:00:37.101Z,1.90
2022-08-10T08:03:08.249Z,2.15
2022-08-10T08:05:58.126Z,1.77
2022-08-10T08:08:24.025Z,1.80
2022-08-10T08:10:51.803Z,1.90
2022-08-10T08:13:21.998Z,2.00
2022-08-10T08:16:16.987Z,2.00
2022-08-10T08:18:41.846Z,2.08
2022-08-10T08:24:09.602Z,2.17
2022-08-10T08:24:31.494Z,1.67
2022-08-10T08:26:56.813Z,2.03
2022-08-10T08:29:25.865Z,1.80
2022-08-10T08:32:02.723Z,1.85
2022-08-10T08:34:32.953Z,1.70
2022-08-10T08:37:02.381Z,1.33
2022-08-10T08:39:33.154Z,1.27
2022-08-10T08:42:32.518Z,1.20
2022-08-10T08:46:00.449Z,1.27
2022-08-10T08:48:59.764Z,1.02
2022-08-10T08:52:07.869Z,1.40
2022-08-10T08:54:35.150Z,1.30
2022-08-10T08:57:49.148Z,1.50
2022-08-10T09:00:42.747Z,1.20
2022-08-10T09:03:37.255Z,1.20
2022-08-10T09:06:26.175Z,1.38
2022-08-10T09:09:16.994Z,1.40
2022-08-10T09:12:05.902Z,1.50
2022-08-10T09:15:07.618Z,1.20
2022-08-10T09:17:46.154Z,1.40
2022-08-10T09:20:45.376Z,1.25
2022-08-10T09:24:02.166Z,1.58
2022-08-10T09:26:21.100Z,1.23
2022-08-10T09:29:00.395Z,1.42
2022-08-10T09:33:05.393Z,1.40
2022-08-10T09:36:24.066Z,1.55
2022-08-10T09:38:28.230Z,1.40
2022-08-10T09:44:35.712Z,1.23
2022-08-10T09:47:40.264Z,1.60
2022-08-10T09:50:55.700Z,1.52
2022-08-10T09:53:31.446Z,1.40
2022-08-10T09:56:39.416Z,1.27
2022-08-10T10:00:00.808Z,1.27
2022-08-10T10:02:39.113Z,1.50
2022-08-10T10:05:25.138Z,1.33
2022-08-10T10:08:10.814Z,1.40
2022-08-10T10:10:54.077Z,1.40
2022-08-10T10:13:50.007Z,1.27
2022-08-10T10:16:45.990Z,1.58
2022-08-10T10:19:29.828Z,1.33
2022-08-10T10:22:17.941Z,1.77
2022-08-10T10:25:24.968Z,1.50
2022-08-10T10:31:44.184Z,1.00
2022-08-10T10:34:29.797Z,1.25
2022-08-10T10:36:59.745Z,1.25
2022-08-10T10:39:29.187Z,1.20
2022-08-10T10:42:43.863Z,1.10
2022-08-10T10:45:51.383Z,0.93
2022-08-10T10:48:39.824Z,1.13
2022-08-10T10:51:29.073Z,1.10
2022-08-10T10:54:07.690Z,1.20
2022-08-10T10:56:53.204Z,1.50
2022-08-10T10:59:55.789Z,1.10
2022-08-10T11:02:52.434Z,1.08
2022-08-10T11:05:49.327Z,1.08
2022-08-10T11:08:29.136Z,1.40
2022-08-10T11:12:00.649Z,1.20
2022-08-10T11:14:41.246Z,1.00
2022-08-10T11:17:20.982Z,1.17
2022-08-10T11:20:22.826Z,0.90
2022-08-10T11:23:03.970Z,0.80
2022-08-10T11:25:38.880Z,1.10
2022-08-10T11:28:29.875Z,1.20
2022-08-10T11:31:10.803Z,1.08
2022-08-10T11:34:11.599Z,1.10
2022-08-10T11:36:42.709Z,1.10
2022-08-10T11:39:19.004Z,1.10
2022-08-10T11:42:11.985Z,1.17
2022-08-10T11:44:40.377Z,1.27
2022-08-10T11:47:15.135Z,1.10
2022-08-10T11:49:57.506Z,1.00
2022-08-10T11:52:36.936Z,1.05
2022-08-10T11:55:12.772Z,1.30
2022-08-10T11:57:53.471Z,1.10
2022-08-10T12:00:24.087Z,1.15
2022-08-10T12:03:12.629Z,1.00
2022-08-10T12:05:54.825Z,1.13
2022-08-10T12:10:02.676Z,1.20
2022-08-10T12:11:24.661Z,0.90
2022-08-10T12:14:21.239Z,1.10
2022-08-10T12:16:52.565Z,1.20
2022-08-10T12:19:28.122Z,1.00
2022-08-10T12:22:06.298Z,1.13
2022-08-10T12:24:48.267Z,1.00
2022-08-10T12:27:21.115Z,1.00
2022-08-10T12:30:04.956Z,1.02
2022-08-10T12:32:44.158Z,0.95
2022-08-10T12:35:31.302Z,1.30
2022-08-10T12:38:14.853Z,1.13
2022-08-10T12:40:47.204Z,1.10
2022-08-10T12:44:06.224Z,1.17
2022-08-10T12:46:26.059Z,1.10
2022-08-10T12:49:28.206Z,0.95
2022-08-10T12:52:16.692Z,1.27
2022-08-10T12:54:44.142Z,1.00
2022-08-10T12:57:18.042Z,1.30
2022-08-10T12:59:50.863Z,1.25
2022-08-10T13:02:33.687Z,3.83
2022-08-10T13:05:03.825Z,1.15
2022-08-10T13:08:24.608Z,0.93
2022-08-10T13:10:26.403Z,2.42
2022-08-10T13:12:58.241Z,1.10
2022-08-10T13:15:48.095Z,1.05
2022-08-10T13:18:24.284Z,1.00
2022-08-10T13:20:59.120Z,2.10
2022-08-10T13:23:29.799Z,1.60
2022-08-10T13:25:59.385Z,2.05
2022-08-10T13:28:40.003Z,1.30
2022-08-10T13:31:16.633Z,1.15
2022-08-10T13:34:42.262Z,1.25
2022-08-10T13:37:10.906Z,1.30
2022-08-10T13:39:58.050Z,1.30
2022-08-10T13:42:32.031Z,1.00
2022-08-10T13:45:13.594Z,1.10
2022-08-10T13:47:48.451Z,1.17
2022-08-10T13:50:34.771Z,1.15
2022-08-10T13:53:11.627Z,1.15
2022-08-10T13:55:54.957Z,1.30
2022-08-10T13:58:37.585Z,1.10
2022-08-10T14:01:13.897Z,1.05
2022-08-10T14:03:43.346Z,1.10
2022-08-10T14:06:15.290Z,1.08
2022-08-10T14:08:50.117Z,0.98
2022-08-10T14:11:19.489Z,1.00
2022-08-10T14:13:53.589Z,1.02
2022-08-10T14:16:22.207Z,1.10
2022-08-10T14:18:52.445Z,1.20
2022-08-10T14:21:19.446Z,1.00
2022-08-10T14:23:51.864Z,1.10
2022-08-10T14:26:26.605Z,0.95
2022-08-10T14:28:57.124Z,0.90
2022-08-10T14:31:29.553Z,1.00
2022-08-10T14:33:59.090Z,1.00
2022-08-10T14:36:42.316Z,0.93
2022-08-10T14:39:14.825Z,0.90
2022-08-10T14:42:01.178Z,1.30
2022-08-10T14:44:31.690Z,0.93
2022-08-10T14:47:11.065Z,1.00
2022-08-10T14:49:57.681Z,1.08
2022-08-10T14:52:26.863Z,1.05
2022-08-10T14:54:55.095Z,1.10
2022-08-10T14:57:23.415Z,1.02
2022-08-10T15:00:28.010Z,0.93
2022-08-10T15:03:02.318Z,1.30
2022-08-10T15:05:39.795Z,0.90
2022-08-10T15:08:11.294Z,0.88
2022-08-10T15:10:39.005Z,0.90
2022-08-10T15:13:33.935Z,0.90
2022-08-10T15:16:12.444Z,0.90
2022-08-10T15:18:57.912Z,0.90
2022-08-10T15:21:42.314Z,0.80
2022-08-10T15:24:37.870Z,0.70
2022-08-10T15:27:08.740Z,1.10
2022-08-10T15:29:57.244Z,1.00
2022-08-10T15:32:53.993Z,0.93
2022-08-10T15:35:42.011Z,0.80
2022-08-10T15:38:09.585Z,0.70
2022-08-10T15:40:50.478Z,1.00
2022-08-10T15:43:24.678Z,0.80
2022-08-10T15:46:36.797Z,0.82
2022-08-10T15:49:14.918Z,0.70
2022-08-10T15:51:53.945Z,0.88
2022-08-10T15:54:33.804Z,0.70
2022-08-10T15:57:09.266Z,0.70
2022-08-10T15:59:46.391Z,0.90
2022-08-10T16:02:19.076Z,0.80
2022-08-10T16:05:06.403Z,0.70
2022-08-10T16:07:57.763Z,0.70
2022-08-10T16:10:30.867Z,0.60
2022-08-10T16:13:01.178Z,0.70
2022-08-10T16:15:30.254Z,0.80
2022-08-10T16:18:12.214Z,0.50
2022-08-10T16:20:54.950Z,0.60
2022-08-10T16:24:14.290Z,0.55
2022-08-10T16:26:46.356Z,0.60
2022-08-10T16:29:21.225Z,0.70
2022-08-10T16:32:00.771Z,0.68
2022-08-10T16:34:29.723Z,0.60
2022-08-10T16:36:59.389Z,0.55
2022-08-10T16:39:59.252Z,0.60
2022-08-10T16:42:25.360Z,0.70
2022-08-10T16:45:14.905Z,0.65
2022-08-10T16:47:50.596Z,0.70
2022-08-10T16:50:29.578Z,0.60
2022-08-10T16:53:02.157Z,0.60
2022-08-10T16:55:48.211Z,0.68
2022-08-10T16:58:25.202Z,0.85
2022-08-10T17:00:57.246Z,0.80
2022-08-10T17:04:05.623Z,0.50
2022-08-10T17:06:29.639Z,0.80
2022-08-10T17:08:59.544Z,0.65
2022-08-10T17:11:32.661Z,0.70
2022-08-10T17:14:02.426Z,0.60
2022-08-10T17:16:44.351Z,0.50
2022-08-10T17:19:15.558Z,0.45
2022-08-10T17:21:51.087Z,0.70
2022-08-10T17:24:24.447Z,0.70
2022-08-10T17:26:51.517Z,0.52
2022-08-10T17:29:57.140Z,0.60
2022-08-10T17:32:43.946Z,0.60
2022-08-10T17:35:16.784Z,0.50
2022-08-10T17:37:54.086Z,0.50
2022-08-10T17:40:24.655Z,0.60
2022-08-10T17:42:53.376Z,0.50
2022-08-10T17:45:48.773Z,0.50
2022-08-10T17:48:12.689Z,0.60
2022-08-10T17:50:43.574Z,0.60
2022-08-10T17:53:16.076Z,0.77
2022-08-10T17:55:47.487Z,0.70
2022-08-10T17:58:22.357Z,0.82
2022-08-10T18:01:38.973Z,0.68
2022-08-10T18:04:00.859Z,0.50
2022-08-10T18:06:30.093Z,0.65
2022-08-10T18:09:00.044Z,0.55
2022-08-10T18:11:31.053Z,0.60
2022-08-10T18:14:02.118Z,0.60
2022-08-10T18:16:31.684Z,0.98
2022-08-10T18:19:07.671Z,0.70
2022-08-10T18:21:37.771Z,0.68
2022-08-10T18:24:15.582Z,0.65
2022-08-10T18:26:44.511Z,0.55
2022-08-10T18:29:18.614Z,0.50
2022-08-10T18:31:48.003Z,0.68
2022-08-10T18:34:20.720Z,0.70
2022-08-10T18:36:49.535Z,0.68
2022-08-10T18:39:21.384Z,0.50
2022-08-10T18:42:00.574Z,0.60
2022-08-10T18:44:37.228Z,0.63
2022-08-10T18:47:10.411Z,0.70
2022-08-10T18:49:37.013Z,0.50
2022-08-10T18:52:09.548Z,0.77
2022-08-10T18:54:48.361Z,0.60
2022-08-10T18:57:43.324Z,0.70
2022-08-10T19:00:13.232Z,0.70
2022-08-10T19:02:46.059Z,0.68
2022-08-10T19:05:31.586Z,0.98
2022-08-10T19:08:30.732Z,0.80
2022-08-10T19:11:09.991Z,0.80
2022-08-10T19:13:49.067Z,0.90
2022-08-10T19:16:39.596Z,0.85
2022-08-10T19:19:22.681Z,0.75
2022-08-10T19:22:04.943Z,0.70
2022-08-10T19:24:50.424Z,1.00
2022-08-10T19:27:26.393Z,0.65
2022-08-10T19:30:12.418Z,0.90
2022-08-10T19:33:09.096Z,0.85
2022-08-10T19:36:05.398Z,0.80
2022-08-10T19:39:18.048Z,0.88
2022-08-10T19:41:54.431Z,1.00
2022-08-10T19:44:45.819Z,1.02
2022-08-10T19:47:35.965Z,1.02
2022-08-10T19:50:31.086Z,1.20
2022-08-10T19:53:03.711Z,0.98
2022-08-10T19:55:47.088Z,1.20
2022-08-10T19:58:28.056Z,1.20
2022-08-10T20:00:59.698Z,1.10
2022-08-10T20:03:55.475Z,1.17
2022-08-10T20:06:42.428Z,1.48
2022-08-10T20:09:21.895Z,1.58
2022-08-10T20:11:59.107Z,1.17
2022-08-10T20:14:27.839Z,1.55
2022-08-10T20:17:02.506Z,1.38
2022-08-10T20:19:53.238Z,1.45
2022-08-10T20:22:32.246Z,1.80
2022-08-10T20:25:16.627Z,1.60
2022-08-10T20:28:05.098Z,1.63
2022-08-10T20:30:34.419Z,1.88
2022-08-10T20:33:17.114Z,1.77
2022-08-10T20:35:58.366Z,1.52
2022-08-10T20:38:55.991Z,2.00
2022-08-10T20:41:43.902Z,2.20
2022-08-10T20:44:50.725Z,1.98
2022-08-10T20:47:42.498Z,2.08
2022-08-10T20:50:40.453Z,2.20
2022-08-10T20:53:11.332Z,1.73
2022-08-10T20:56:10.850Z,2.10
2022-08-10T20:59:08.982Z,1.88
2022-08-10T21:02:11.143Z,1.88
2022-08-10T21:05:16.218Z,1.95
2022-08-10T21:08:17.020Z,2.03
2022-08-10T21:11:17.592Z,2.40
2022-08-10T21:14:18.992Z,2.00
2022-08-10T21:16:56.154Z,1.98
2022-08-10T21:19:52.126Z,2.17
2022-08-10T21:22:34.661Z,2.05
2022-08-10T21:25:06.209Z,2.35
2022-08-10T21:27:35.651Z,2.50
2022-08-10T21:30:28.667Z,2.70
2022-08-10T21:33:07.891Z,2.25
2022-08-10T21:35:48.828Z,2.83
2022-08-10T21:38:39.394Z,2.63
2022-08-10T21:41:57.421Z,2.63
2022-08-10T21:45:47.530Z,2.92
2022-08-10T21:49:02.725Z,2.78
2022-08-10T21:52:12.333Z,2.72
2022-08-10T21:55:22.184Z,2.75
2022-08-10T21:58:27.480Z,2.88
2022-08-10T22:01:23.461Z,2.80
2022-08-10T22:04:24.761Z,2.78
2022-08-10T22:07:10.835Z,3.60
2022-08-10T22:10:03.938Z,3.17
2022-08-10T22:12:57.821Z,3.10
2022-08-10T22:16:10.163Z,3.10
2022-08-10T22:19:02.181Z,3.50
2022-08-10T22:21:55.151Z,3.10
2022-08-10T22:24:53.007Z,3.42
2022-08-10T22:27:55.395Z,3.67
2022-08-10T22:31:22.745Z,3.33
2022-08-10T22:34:15.023Z,3.30
2022-08-10T22:37:35.849Z,3.13
2022-08-10T22:40:32.222Z,2.88
2022-08-10T22:43:35.393Z,3.15
2022-08-10T22:46:32.970Z,3.42
2022-08-10T22:48:59.950Z,3.75
2022-08-10T22:51:50.918Z,3.80
2022-08-10T22:54:58.072Z,3.38
2022-08-10T22:57:43.962Z,3.55
2022-08-10T23:00:16.493Z,3.63
2022-08-10T23:02:56.784Z,3.65
2022-08-10T23:05:33.645Z,3.80
2022-08-10T23:08:29.459Z,3.45
2022-08-10T23:11:02.751Z,3.65
2022-08-10T23:13:43.316Z,3.78
2022-08-10T23:16:42.757Z,3.80
2022-08-10T23:19:32.348Z,4.00
2022-08-10T23:22:10.270Z,3.45
2022-08-10T23:24:42.932Z,4.00
2022-08-10T23:27:37.315Z,3.95
2022-08-10T23:30:09.176Z,4.05
2022-08-10T23:32:48.761Z,4.15
2022-08-10T23:36:30.254Z,4.43
2022-08-10T23:38:09.223Z,4.38
2022-08-10T23:40:36.772Z,4.28
2022-08-10T23:43:04.875Z,4.10
2022-08-10T23:45:53.428Z,4.40
2022-08-10T23:48:22.372Z,4.78
2022-08-10T23:50:58.394Z,4.35
2022-08-10T23:53:47.657Z,5.00
2022-08-10T23:56:17.971Z,4.32
2022-08-10T23:58:47.146Z,4.85
